Time;durP1;ratioP1;P1;durP2;ratioP2;P2;SDS_P1;SDS_P2;PMS_P1;PMS_P2;Temp;Humidity;BMP_temperature;BMP_pressure;BME280_temperature;BME280_humidity;BME280_pressure;Samples;Min_cycle;Max_cycle;Signal;HPM_P1;HPM_P2
2023/01/16 00:00:43;;;;;;;2.92;1.60;;;4.90;99.90;;;;;;5051700;27;20060;-76
2023/01/16 00:03:09;;;;;;;4.13;1.85;;;5.00;99.90;;;;;;5120262;27;20047;-75
2023/01/16 00:05:35;;;;;;;4.38;1.95;;;5.40;99.90;;;;;;5119884;27;20119;-76
2023/01/16 00:08:00;;;;;;;2.28;1.42;;;5.30;99.90;;;;;;5051135;27;20482;-76
2023/01/16 00:10:26;;;;;;;2.60;1.02;;;4.90;99.90;;;;;;5103191;28;20043;-76
2023/01/16 00:12:51;;;;;;;2.17;1.20;;;4.80;99.90;;;;;;5051347;27;20520;-76
2023/01/16 00:15:17;;;;;;;1.85;1.33;;;5.20;99.90;;;;;;5051504;28;20044;-76
2023/01/16 00:17:43;;;;;;;1.67;1.20;;;5.30;99.90;;;;;;5119879;27;20124;-76
2023/01/16 00:20:09;;;;;;;2.35;1.33;;;4.90;99.90;;;;;;5119713;27;20056;-76
2023/01/16 00:22:35;;;;;;;2.33;1.38;;;4.90;99.90;;;;;;5050824;28;20048;-76
2023/01/16 00:25:01;;;;;;;2.00;1.25;;;4.90;99.90;;;;;;5120467;27;20037;-76
2023/01/16 00:27:26;;;;;;;3.63;1.10;;;4.90;99.90;;;;;;5050700;28;20045;-75
2023/01/16 00:29:52;;;;;;;2.10;1.05;;;4.90;99.90;;;;;;5119512;27;20041;-76
2023/01/16 00:32:18;;;;;;;2.47;1.13;;;4.80;99.90;;;;;;5119497;27;20058;-76
2023/01/16 00:34:43;;;;;;;2.65;1.00;;;4.90;99.90;;;;;;5119493;27;20123;-76
2023/01/16 00:37:09;;;;;;;1.60;0.98;;;5.00;99.90;;;;;;5119680;27;20052;-76
2023/01/16 00:39:38;;;;;;;2.67;1.05;;;4.60;99.90;;;;;;5050414;27;20045;-76
2023/01/16 00:42:04;;;;;;;4.00;1.00;;;4.80;99.90;;;;;;5119305;27;20492;-76
2023/01/16 00:44:29;;;;;;;2.80;1.00;;;4.80;99.90;;;;;;5119708;27;20045;-76
2023/01/16 00:46:55;;;;;;;3.00;1.80;;;5.70;99.90;;;;;;5050457;28;20041;-76
2023/01/16 00:49:21;;;;;;;3.13;1.20;;;4.90;99.90;;;;;;5050952;28;20041;-76
2023/01/16 00:51:47;;;;;;;1.67;0.85;;;4.90;99.90;;;;;;5119331;27;20041;-76
2023/01/16 00:54:12;;;;;;;2.53;1.10;;;4.60;99.90;;;;;;5050293;28;20041;-76
2023/01/16 00:56:38;;;;;;;2.95;1.00;;;4.90;99.90;;;;;;5120027;28;20052;-76
2023/01/16 00:59:04;;;;;;;3.45;0.88;;;4.70;99.90;;;;;;5050871;28;20048;-75
2023/01/16 01:01:29;;;;;;;1.48;0.80;;;4.30;99.90;;;;;;5052777;28;20124;-76
2023/01/16 01:03:57;;;;;;;1.85;0.90;;;4.60;99.90;;;;;;5123641;27;20041;-76
2023/01/16 01:06:22;;;;;;;1.95;0.90;;;4.60;99.90;;;;;;5053848;28;20079;-75
2023/01/16 01:08:48;;;;;;;1.30;0.80;;;4.70;99.90;;;;;;5106997;28;20093;-75
2023/01/16 01:11:14;;;;;;;1.88;0.90;;;4.60;99.90;;;;;;5106429;28;20048;-75
2023/01/16 01:13:41;;;;;;;1.85;0.85;;;4.50;99.90;;;;;;5124364;27;20127;-76
2023/01/16 01:16:07;;;;;;;2.42;1.20;;;4.90;99.90;;;;;;5123070;27;20047;-76
2023/01/16 01:18:33;;;;;;;3.25;0.90;;;4.40;99.90;;;;;;5053639;28;20040;-76
2023/01/16 01:20:59;;;;;;;1.70;1.08;;;4.70;99.90;;;;;;5122996;27;20370;-75
2023/01/16 01:23:25;;;;;;;2.83;1.00;;;5.00;99.90;;;;;;5123050;27;20085;-76
2023/01/16 01:25:52;;;;;;;4.25;1.45;;;4.60;99.90;;;;;;5053462;28;20048;-75
2023/01/16 01:28:18;;;;;;;1.13;0.73;;;4.40;99.90;;;;;;5123556;27;20051;-75
2023/01/16 01:30:43;;;;;;;1.45;0.70;;;4.30;99.90;;;;;;5053526;28;20052;-75
2023/01/16 01:33:09;;;;;;;1.45;1.00;;;4.20;99.90;;;;;;5122882;27;20040;-75
2023/01/16 01:35:36;;;;;;;3.40;1.02;;;4.30;99.90;;;;;;5054081;27;20085;-75
2023/01/16 01:38:02;;;;;;;1.90;0.85;;;4.30;99.90;;;;;;5123417;27;20155;-76
2023/01/16 01:40:28;;;;;;;5.63;1.10;;;4.40;99.90;;;;;;5053254;28;20080;-75
2023/01/16 01:42:54;;;;;;;2.60;0.93;;;4.30;99.90;;;;;;5123306;27;20374;-76
2023/01/16 01:45:24;;;;;;;1.50;0.80;;;4.40;99.90;;;;;;5088987;28;20085;-75
2023/01/16 01:47:55;;;;;;;1.15;0.75;;;4.30;99.90;;;;;;5122882;27;20101;-75
2023/01/16 01:50:34;;;;;;;4.55;1.52;;;4.20;99.90;;;;;;5053377;27;20045;-76
2023/01/16 01:53:03;;;;;;;3.03;0.85;;;4.30;99.90;;;;;;5053795;28;20080;-75
2023/01/16 01:55:29;;;;;;;4.32;1.00;;;4.40;99.90;;;;;;5052989;28;20079;-76
2023/01/16 01:58:00;;;;;;;3.17;0.82;;;4.30;99.90;;;;;;5054044;28;20455;-75
2023/01/16 02:00:26;;;;;;;4.28;0.88;;;4.30;99.90;;;;;;5053070;28;20052;-76
2023/01/16 02:03:03;;;;;;;4.85;1.08;;;4.30;99.90;;;;;;5122349;27;20045;-75
2023/01/16 02:05:36;;;;;;;4.57;1.10;;;4.80;99.90;;;;;;5053812;28;20089;-75
2023/01/16 02:08:04;;;;;;;3.92;0.98;;;4.30;99.90;;;;;;5052910;28;20041;-75
2023/01/16 02:10:39;;;;;;;1.88;0.90;;;4.30;99.90;;;;;;5052883;28;20127;-75
2023/01/16 02:13:05;;;;;;;3.25;1.08;;;5.20;99.90;;;;;;5053370;28;20057;-75
2023/01/16 02:15:31;;;;;;;2.67;0.90;;;4.30;99.90;;;;;;5121747;27;20048;-75
2023/01/16 02:21:32;;;;;;;3.63;1.02;;;4.40;99.90;;;;;;5053080;27;20041;-75
2023/01/16 02:24:41;;;;;;;3.60;1.20;;;4.40;99.90;;;;;;5073676;28;20037;-76
2023/01/16 02:27:16;;;;;;;2.95;1.05;;;4.40;99.90;;;;;;5074084;28;20074;-76
2023/01/16 02:30:06;;;;;;;3.03;1.13;;;4.40;99.90;;;;;;5054484;28;20128;-76
2023/01/16 02:32:53;;;;;;;1.83;1.10;;;4.40;99.90;;;;;;5122784;27;20415;-76
2023/01/16 02:35:39;;;;;;;4.05;1.00;;;4.50;99.90;;;;;;5052995;27;20061;-75
2023/01/16 02:38:18;;;;;;;6.28;1.30;;;4.40;99.90;;;;;;5122020;27;20427;-75
2023/01/16 02:41:41;;;;;;;2.60;0.90;;;4.70;99.90;;;;;;5052879;27;20048;-75
2023/01/16 02:44:25;;;;;;;2.97;0.80;;;4.50;99.90;;;;;;5062637;28;20091;-75
2023/01/16 02:46:53;;;;;;;;;;;4.50;99.90;;;;;;5121735;27;20052;-75
2023/01/16 02:49:27;;;;;;;1.98;0.90;;;4.50;99.90;;;;;;5052085;28;20387;-75
2023/01/16 02:51:58;;;;;;;4.47;1.00;;;4.60;99.90;;;;;;5052298;27;20033;-76
2023/01/16 02:54:24;;;;;;;3.22;0.93;;;4.50;99.90;;;;;;5052455;27;20037;-76
2023/01/16 02:56:57;;;;;;;4.72;1.02;;;5.00;99.90;;;;;;5053512;28;20116;-75
2023/01/16 02:59:25;;;;;;;2.35;0.88;;;4.60;99.90;;;;;;5058026;28;20086;-75
2023/01/16 03:01:50;;;;;;;2.53;0.80;;;4.60;99.90;;;;;;5106024;28;20047;-75
2023/01/16 03:04:34;;;;;;;2.65;0.70;;;4.90;99.90;;;;;;5122418;27;20131;-75
2023/01/16 03:07:31;;;;;;;5.38;0.73;;;5.20;99.90;;;;;;5051958;28;20102;-76
2023/01/16 03:10:18;;;;;;;3.53;0.70;;;4.60;99.90;;;;;;5051867;28;20084;-76
2023/01/16 03:13:12;;;;;;;2.40;0.60;;;4.80;99.90;;;;;;5121005;27;20112;-75
2023/01/16 03:16:04;;;;;;;2.15;0.70;;;4.70;99.90;;;;;;5062022;28;20048;-75
2023/01/16 03:18:49;;;;;;;3.30;0.80;;;4.40;99.90;;;;;;5051544;28;20055;-76
2023/01/16 03:21:45;;;;;;;2.45;0.65;;;4.60;99.90;;;;;;5052335;28;20449;-75
2023/01/16 03:24:19;;;;;;;5.32;1.00;;;4.60;99.90;;;;;;5120415;27;20040;-75
2023/01/16 03:26:55;;;;;;;3.15;1.00;;;4.60;99.90;;;;;;5051941;28;20044;-76
2023/01/16 03:29:32;;;;;;;2.83;0.77;;;4.70;99.90;;;;;;5051436;28;20492;-75
2023/01/16 03:32:06;;;;;;;3.80;0.82;;;5.50;99.90;;;;;;5121272;27;20072;-75
2023/01/16 03:34:50;;;;;;;3.70;0.80;;;4.50;99.90;;;;;;5126077;27;20068;-75
2023/01/16 03:37:44;;;;;;;1.98;0.70;;;4.60;99.90;;;;;;5121444;27;20099;-75
2023/01/16 03:40:15;;;;;;;3.17;1.05;;;4.60;99.90;;;;;;5052046;28;20037;-75
2023/01/16 03:42:59;;;;;;;2.15;0.80;;;4.70;99.90;;;;;;5121018;27;20072;-75
2023/01/16 03:45:28;;;;;;;;;;;4.60;99.90;;;;;;5121368;27;20045;-76
2023/01/16 03:48:05;;;;;;;2.33;0.90;;;5.00;99.90;;;;;;5121008;27;20360;-76
2023/01/16 03:50:32;;;;;;;2.15;1.02;;;4.60;99.90;;;;;;5120614;27;20090;-75
2023/01/16 03:53:03;;;;;;;1.55;0.70;;;4.60;99.90;;;;;;5051183;27;20083;-76
2023/01/16 03:55:35;;;;;;;2.55;0.70;;;4.50;99.90;;;;;;5051195;28;20039;-75
2023/01/16 03:58:08;;;;;;;2.03;0.80;;;4.40;99.90;;;;;;5051422;28;20053;-75
2023/01/16 04:00:51;;;;;;;3.00;0.80;;;4.50;99.90;;;;;;5051839;27;21995;-75
2023/01/16 04:03:26;;;;;;;1.80;0.90;;;4.40;99.90;;;;;;5120323;27;20084;-76
2023/01/16 04:06:09;;;;;;;4.80;1.08;;;4.50;99.90;;;;;;5120549;27;20132;-75
2023/01/16 04:08:41;;;;;;;5.22;1.10;;;4.30;99.90;;;;;;5120981;27;20056;-75
2023/01/16 04:11:07;;;;;;;3.25;0.90;;;4.40;99.90;;;;;;5120040;27;20037;-75
2023/01/16 04:13:37;;;;;;;4.72;0.90;;;4.30;99.90;;;;;;5050936;28;20037;-75
2023/01/16 04:16:08;;;;;;;5.22;1.00;;;4.30;99.90;;;;;;5050917;28;20069;-75
2023/01/16 04:18:35;;;;;;;3.80;0.80;;;4.30;99.90;;;;;;5050896;28;20164;-75
2023/01/16 04:21:04;;;;;;;2.30;0.90;;;4.50;99.90;;;;;;5102498;28;20040;-75
2023/01/16 04:23:30;;;;;;;3.08;1.00;;;4.30;99.90;;;;;;5120180;27;20045;-75
2023/01/16 04:25:55;;;;;;;3.95;1.00;;;4.70;99.90;;;;;;5050800;28;20056;-75
2023/01/16 04:28:21;;;;;;;1.70;0.90;;;4.50;99.90;;;;;;5120401;27;20064;-75
2023/01/16 04:30:47;;;;;;;3.08;0.85;;;4.40;99.90;;;;;;5102795;28;20037;-75
2023/01/16 04:33:12;;;;;;;3.08;1.10;;;4.40;99.90;;;;;;5050789;27;20149;-75
2023/01/16 04:35:38;;;;;;;3.80;1.08;;;5.40;99.90;;;;;;5049833;27;20045;-76
2023/01/16 04:38:04;;;;;;;3.17;1.00;;;4.40;99.90;;;;;;5120461;27;20053;-75
2023/01/16 04:40:29;;;;;;;2.30;1.13;;;4.60;99.90;;;;;;5050449;28;20423;-75
2023/01/16 04:42:55;;;;;;;4.85;1.33;;;4.50;99.90;;;;;;5050422;28;20120;-76
2023/01/16 04:45:22;;;;;;;2.38;1.60;;;4.70;99.90;;;;;;5102381;28;20094;-75
2023/01/16 04:47:49;;;;;;;1.98;1.13;;;4.50;99.90;;;;;;5050158;28;20566;-75
2023/01/16 04:50:15;;;;;;;3.53;1.10;;;5.10;99.90;;;;;;5050542;27;20041;-75
2023/01/16 04:52:41;;;;;;;3.85;1.25;;;4.50;99.90;;;;;;5050391;28;20041;-76
2023/01/16 04:55:08;;;;;;;4.20;1.60;;;4.60;99.90;;;;;;5101819;28;20428;-75
2023/01/16 04:57:33;;;;;;;5.95;2.40;;;4.60;99.90;;;;;;5050445;27;20049;-75
2023/01/16 04:59:59;;;;;;;1.67;1.27;;;5.30;99.90;;;;;;5050456;27;20086;-75
2023/01/16 05:02:25;;;;;;;3.70;1.33;;;4.70;99.90;;;;;;5050232;28;20048;-76
2023/01/16 05:04:51;;;;;;;1.98;1.40;;;4.90;99.90;;;;;;5050010;28;20489;-75
2023/01/16 05:07:16;;;;;;;2.90;1.30;;;4.70;99.90;;;;;;5050363;28;20045;-75
2023/01/16 05:09:42;;;;;;;3.25;1.00;;;4.70;99.90;;;;;;5085152;28;20037;-75
2023/01/16 05:12:08;;;;;;;2.88;1.50;;;4.80;99.90;;;;;;5119251;28;20041;-75
2023/01/16 05:14:33;;;;;;;2.78;1.50;;;5.00;99.90;;;;;;5050352;28;20041;-75
2023/01/16 05:16:59;;;;;;;3.33;1.40;;;4.70;99.90;;;;;;5050452;28;20037;-75
2023/01/16 05:19:25;;;;;;;4.10;1.40;;;4.90;99.90;;;;;;5119652;28;20092;-75
2023/01/16 05:21:50;;;;;;;3.13;1.30;;;4.80;99.90;;;;;;5050599;28;20049;-75
2023/01/16 05:24:16;;;;;;;3.42;1.50;;;4.80;99.90;;;;;;5050104;28;20047;-75
2023/01/16 05:26:42;;;;;;;3.25;1.63;;;4.80;99.90;;;;;;5049860;27;20066;-75
2023/01/16 05:29:08;;;;;;;4.00;1.80;;;4.80;99.90;;;;;;5101859;28;20048;-75
2023/01/16 05:31:33;;;;;;;4.53;1.80;;;4.70;99.90;;;;;;5102232;28;20050;-75
2023/01/16 05:33:59;;;;;;;3.70;1.52;;;4.90;99.90;;;;;;5049582;27;20078;-75
2023/01/16 05:36:25;;;;;;;3.28;1.77;;;4.70;99.90;;;;;;5050627;28;20056;-75
2023/01/16 05:38:51;;;;;;;3.25;1.80;;;5.00;99.90;;;;;;5049861;28;20386;-75
2023/01/16 05:41:17;;;;;;;2.88;1.60;;;4.70;99.90;;;;;;5049786;28;20518;-75
2023/01/16 05:43:42;;;;;;;4.55;1.85;;;4.90;99.90;;;;;;5101819;28;20092;-75
2023/01/16 05:46:08;;;;;;;5.35;2.53;;;4.90;99.90;;;;;;5119209;27;20048;-76
2023/01/16 05:48:35;;;;;;;4.25;2.33;;;4.70;99.90;;;;;;5053994;28;20044;-75
2023/01/16 05:51:02;;;;;;;4.65;2.50;;;4.80;99.90;;;;;;5122119;27;20063;-76
2023/01/16 05:53:29;;;;;;;5.78;2.70;;;4.90;99.90;;;;;;5122728;27;20488;-75
2023/01/16 05:55:55;;;;;;;6.00;2.70;;;5.00;99.90;;;;;;5122621;27;20251;-76
2023/01/16 05:58:21;;;;;;;5.50;3.15;;;5.10;99.90;;;;;;5053692;28;20552;-76
2023/01/16 06:00:47;;;;;;;4.80;3.08;;;5.40;99.90;;;;;;5053428;27;20060;-75
2023/01/16 06:03:15;;;;;;;7.32;4.15;;;4.80;99.90;;;;;;5122621;27;20462;-75
2023/01/16 06:05:41;;;;;;;5.22;3.13;;;5.00;99.90;;;;;;5052918;28;20131;-75
2023/01/16 06:08:07;;;;;;;5.75;3.05;;;4.90;99.90;;;;;;5052813;28;20041;-76
2023/01/16 06:10:32;;;;;;;10.07;3.80;;;4.70;99.90;;;;;;5122011;27;20377;-75
2023/01/16 06:13:00;;;;;;;9.00;4.28;;;4.20;99.90;;;;;;5122444;27;20047;-76
2023/01/16 06:15:26;;;;;;;7.53;4.75;;;4.80;99.90;;;;;;5052813;28;20071;-75
2023/01/16 06:17:53;;;;;;;9.00;5.22;;;5.60;99.90;;;;;;5053053;27;20033;-75
2023/01/16 06:20:19;;;;;;;8.70;5.40;;;4.60;99.90;;;;;;5052774;28;20101;-75
2023/01/16 06:22:45;;;;;;;8.55;4.70;;;4.60;99.90;;;;;;5121970;27;20044;-75
2023/01/16 06:25:11;;;;;;;7.78;4.95;;;4.70;99.90;;;;;;5052663;28;20477;-76
2023/01/16 06:27:37;;;;;;;10.48;5.55;;;4.50;99.90;;;;;;5122036;27;20044;-75
2023/01/16 06:30:04;;;;;;;8.32;5.20;;;4.50;99.90;;;;;;5053266;28;20040;-75
2023/01/16 06:32:29;;;;;;;9.18;5.05;;;4.50;99.90;;;;;;5052546;28;20044;-75
2023/01/16 06:34:55;;;;;;;9.23;5.63;;;4.40;99.90;;;;;;5104253;28;20500;-74
2023/01/16 06:37:21;;;;;;;10.43;5.53;;;4.70;99.90;;;;;;5052743;28;20124;-75
2023/01/16 06:39:46;;;;;;;10.63;5.82;;;4.70;99.90;;;;;;5052512;28;20047;-75
2023/01/16 06:42:12;;;;;;;7.63;5.05;;;5.20;99.90;;;;;;5104406;28;20462;-75
2023/01/16 06:44:38;;;;;;;10.52;5.07;;;4.80;99.90;;;;;;5104713;28;20088;-75
2023/01/16 06:47:04;;;;;;;8.25;4.88;;;4.70;99.90;;;;;;5052926;27;20120;-75
2023/01/16 06:49:29;;;;;;;7.40;4.70;;;4.70;99.90;;;;;;5053045;28;20416;-76
2023/01/16 06:51:55;;;;;;;10.45;4.78;;;5.20;99.90;;;;;;5053138;28;20116;-75
2023/01/16 06:54:21;;;;;;;9.65;3.90;;;5.10;99.90;;;;;;5121412;27;20373;-75
2023/01/16 06:56:46;;;;;;;8.10;3.50;;;4.50;99.90;;;;;;5052133;28;20039;-75
2023/01/16 06:59:12;;;;;;;8.85;3.60;;;4.90;99.90;;;;;;5051137;27;20366;-73
2023/01/16 07:01:38;;;;;;;8.43;4.15;;;4.60;99.90;;;;;;5052746;27;20355;-75
2023/01/16 07:04:06;;;;;;;11.32;4.55;;;4.60;99.90;;;;;;5052710;28;20056;-75
2023/01/16 07:06:32;;;;;;;10.55;3.75;;;4.50;99.90;;;;;;5104177;27;20041;-76
2023/01/16 07:08:58;;;;;;;9.35;3.85;;;4.50;99.90;;;;;;5051931;28;20093;-75
2023/01/16 07:11:24;;;;;;;8.85;3.33;;;4.70;99.90;;;;;;5052222;28;20037;-75
2023/01/16 07:22:33;;;;;;;7.97;3.60;;;4.40;99.90;;;;;;5052136;28;20128;-75
2023/01/16 07:24:47;;;;;;;10.80;3.78;;;4.40;99.90;;;;;;5051873;27;20120;-76
2023/01/16 07:27:13;;;;;;;7.05;3.13;;;4.50;99.90;;;;;;5052809;27;20151;-75
2023/01/16 07:29:39;;;;;;;7.75;3.42;;;4.60;99.90;;;;;;5103861;28;20132;-76
2023/01/16 07:32:05;;;;;;;7.28;3.15;;;4.40;99.90;;;;;;5051672;28;20033;-75
2023/01/16 07:34:31;;;;;;;5.28;3.17;;;4.50;99.90;;;;;;5121181;27;20177;-75
2023/01/16 07:36:56;;;;;;;8.32;3.50;;;4.30;99.90;;;;;;5052192;27;20534;-76
2023/01/16 07:39:22;;;;;;;6.57;3.35;;;4.40;99.90;;;;;;5057641;28;20041;-75
2023/01/16 07:41:50;;;;;;;6.78;2.70;;;4.50;99.90;;;;;;5123174;27;20052;-74
2023/01/16 07:44:16;;;;;;;6.00;2.85;;;5.00;99.90;;;;;;5120822;27;20128;-75
2023/01/16 07:46:41;;;;;;;6.60;3.30;;;4.40;99.90;;;;;;5103405;28;20088;-75
2023/01/16 07:49:07;;;;;;;6.75;3.28;;;4.50;99.90;;;;;;5120361;27;20037;-75
2023/01/16 07:51:32;;;;;;;12.80;5.25;;;4.40;99.90;;;;;;5051341;28;20040;-75
2023/01/16 07:53:58;;;;;;;8.00;4.03;;;4.50;99.90;;;;;;5051864;28;20369;-75
2023/01/16 07:56:24;;;;;;;4.60;2.88;;;4.70;99.90;;;;;;5119764;27;20045;-75
2023/01/16 07:58:54;;;;;;;6.35;3.08;;;4.30;99.90;;;;;;5051206;28;20479;-75
2023/01/16 08:01:19;;;;;;;5.97;2.25;;;4.30;99.90;;;;;;5050957;28;20063;-75
2023/01/16 08:03:45;;;;;;;7.47;3.10;;;4.30;99.90;;;;;;5121035;27;20037;-75
2023/01/16 08:06:11;;;;;;;7.85;2.65;;;4.20;99.90;;;;;;5120188;27;20041;-75
2023/01/16 08:08:36;;;;;;;4.18;2.70;;;4.20;99.90;;;;;;5119699;27;20484;-76
2023/01/16 08:11:35;;;;;;;6.85;2.92;;;4.50;99.90;;;;;;5103846;28;20061;-76
2023/01/16 08:13:51;;;;;;;6.28;3.28;;;4.40;99.90;;;;;;5054619;28;20045;-75
2023/01/16 08:16:16;;;;;;;6.22;2.63;;;4.40;99.90;;;;;;5119739;27;20097;-75
2023/01/16 08:18:42;;;;;;;6.15;2.50;;;4.80;99.90;;;;;;5050962;27;20486;-76
2023/01/16 08:21:08;;;;;;;5.72;3.10;;;4.20;99.90;;;;;;5050723;28;20041;-75
2023/01/16 08:23:33;;;;;;;6.32;3.38;;;4.20;99.90;;;;;;5120002;27;20055;-75
2023/01/16 08:26:00;;;;;;;4.95;2.35;;;4.80;99.90;;;;;;5102557;28;20071;-75
2023/01/16 08:28:26;;;;;;;5.50;2.95;;;4.30;99.90;;;;;;5119536;27;20461;-75
2023/01/16 08:30:52;;;;;;;6.70;2.33;;;4.50;99.90;;;;;;5050734;28;20076;-75
2023/01/16 08:33:18;;;;;;;5.47;2.83;;;4.60;99.90;;;;;;5050780;27;20069;-75
2023/01/16 08:35:43;;;;;;;4.88;2.72;;;4.30;99.90;;;;;;5050441;28;20056;-75
2023/01/16 08:38:09;;;;;;;7.13;2.78;;;4.40;99.90;;;;;;5119619;27;20446;-74
2023/01/16 08:40:34;;;;;;;7.53;3.00;;;4.80;99.90;;;;;;5051130;27;20051;-75
2023/01/16 08:51:22;;;;;;;5.55;2.85;;;4.50;99.90;;;;;;5050606;27;20128;-74
2023/01/16 08:53:48;;;;;;;7.53;2.67;;;4.50;99.90;;;;;;5051197;28;20078;-75
2023/01/16 08:56:14;;;;;;;4.90;2.40;;;4.80;99.90;;;;;;5119670;27;20139;-75
2023/01/16 08:58:40;;;;;;;4.68;2.28;;;4.60;99.90;;;;;;5051257;27;20131;-74
2023/01/16 09:01:06;;;;;;;5.10;2.70;;;4.30;99.90;;;;;;5050554;28;20053;-75
2023/01/16 09:03:34;;;;;;;4.18;2.17;;;4.60;99.90;;;;;;5050227;28;20033;-75
2023/01/16 09:06:00;;;;;;;6.22;2.22;;;4.30;99.90;;;;;;5119305;28;20124;-74
2023/01/16 09:08:26;;;;;;;8.13;2.58;;;4.20;99.90;;;;;;5050171;28;20040;-75
2023/01/16 09:13:50;;;;;;;4.72;2.38;;;5.00;99.90;;;;;;5109326;28;20045;-75
2023/01/16 09:16:17;;;;;;;6.63;2.67;;;4.50;99.90;;;;;;5051333;28;20045;-75
2023/01/16 09:18:43;;;;;;;6.03;2.15;;;4.40;99.90;;;;;;5050706;28;20045;-75
2023/01/16 09:21:08;;;;;;;5.72;2.30;;;4.70;99.90;;;;;;5119153;27;20048;-74
2023/01/16 09:23:34;;;;;;;5.53;1.92;;;4.50;99.90;;;;;;5122895;27;20044;-75
2023/01/16 09:26:00;;;;;;;3.78;2.42;;;4.50;99.90;;;;;;5122860;27;20378;-75
2023/01/16 09:28:25;;;;;;;5.70;2.30;;;4.50;99.90;;;;;;5123149;27;20048;-76
2023/01/16 09:30:51;;;;;;;4.63;2.20;;;4.40;99.90;;;;;;5123257;27;20051;-74
2023/01/16 09:33:17;;;;;;;3.70;1.98;;;4.60;99.90;;;;;;5053783;27;20083;-74
2023/01/16 09:35:43;;;;;;;4.55;1.85;;;4.70;99.90;;;;;;5054154;28;20140;-75
2023/01/16 09:38:08;;;;;;;5.40;2.03;;;4.60;99.90;;;;;;5053687;28;20056;-75
2023/01/16 09:40:34;;;;;;;2.72;1.73;;;4.70;99.90;;;;;;5054245;28;20082;-75
2023/01/16 09:43:38;;;;;;;5.78;1.50;;;4.50;99.90;;;;;;5053397;28;20420;-71
2023/01/16 09:46:13;;;;;;;5.43;1.75;;;4.50;99.90;;;;;;5112176;27;20469;-72
2023/01/16 09:48:59;;;;;;;4.97;1.50;;;4.50;99.90;;;;;;5053416;28;20052;-72
2023/01/16 09:51:33;;;;;;;4.07;1.70;;;4.50;99.90;;;;;;5123168;27;20146;-72
2023/01/16 09:59:42;;;;;;;3.70;1.38;;;4.60;99.90;;;;;;5053336;28;20125;-73
2023/01/16 10:02:27;;;;;;;4.07;1.30;;;4.70;99.90;;;;;;5053983;28;20078;-75
2023/01/16 10:04:55;;;;;;;4.70;1.35;;;4.80;99.90;;;;;;5054206;28;20080;-76
2023/01/16 10:07:42;;;;;;;4.47;1.45;;;5.00;99.90;;;;;;5122586;27;20033;-74
2023/01/16 10:10:46;;;;;;;5.53;1.40;;;4.50;99.90;;;;;;5053796;28;20354;-72
2023/01/16 10:13:36;;;;;;;2.83;1.20;;;4.60;99.90;;;;;;5053741;28;20041;-78
2023/01/16 10:16:12;;;;;;;3.65;1.30;;;4.70;99.90;;;;;;5053124;27;20041;-76
2023/01/16 10:18:43;;;;;;;2.13;1.00;;;4.60;99.90;;;;;;5052947;28;20053;-70
2023/01/16 10:21:23;;;;;;;2.90;1.05;;;4.60;99.90;;;;;;5052909;27;20044;-76
2023/01/16 10:23:52;;;;;;;4.85;1.10;;;4.60;99.90;;;;;;5052923;27;20044;-75
2023/01/16 10:26:28;;;;;;;1.50;0.95;;;4.90;99.90;;;;;;5121638;27;20106;-75
2023/01/16 10:29:03;;;;;;;1.58;0.90;;;4.70;99.90;;;;;;5121608;27;20466;-75
2023/01/16 10:31:35;;;;;;;3.33;1.10;;;4.70;99.90;;;;;;5053487;28;20420;-74
2023/01/16 10:34:24;;;;;;;2.67;1.13;;;4.80;99.90;;;;;;5103525;28;20136;-75
2023/01/16 10:36:56;;;;;;;2.40;0.88;;;5.10;99.90;;;;;;5107166;27;20045;-75
2023/01/16 10:39:28;;;;;;;2.50;0.90;;;4.90;99.90;;;;;;5053488;28;20373;-75
2023/01/16 10:50:58;;;;;;;2.07;0.70;;;4.60;99.90;;;;;;5052888;27;20045;-75
2023/01/16 10:53:24;;;;;;;2.83;0.70;;;4.50;99.90;;;;;;5052333;28;20286;-77
2023/01/16 10:55:52;;;;;;;3.17;0.75;;;4.50;99.90;;;;;;5053075;28;20047;-78
2023/01/16 10:58:18;;;;;;;2.08;0.70;;;4.60;99.90;;;;;;5052368;28;20045;-77
2023/01/16 11:00:44;;;;;;;2.25;0.57;;;4.80;99.90;;;;;;5052942;28;20113;-77
2023/01/16 11:03:29;;;;;;;2.03;0.80;;;4.60;99.90;;;;;;5121134;27;20041;-77
2023/01/16 11:06:07;;;;;;;3.17;0.63;;;4.60;99.90;;;;;;5052631;27;20085;-76
2023/01/16 11:08:34;;;;;;;1.77;0.60;;;4.50;99.90;;;;;;5052464;28;20053;-76
2023/01/16 11:11:00;;;;;;;2.20;0.70;;;4.80;99.90;;;;;;5052477;27;20446;-75
2023/01/16 11:18:58;;;;;;;1.35;0.70;;;4.60;99.90;;;;;;5052703;27;20119;-75
2023/01/16 11:21:31;;;;;;;2.67;0.60;;;4.30;99.90;;;;;;5051944;28;20041;-72
2023/01/16 11:23:57;;;;;;;;;;;5.00;99.90;;;;;;5052531;28;20509;-74
2023/01/16 11:26:23;;;;;;;1.38;0.60;;;4.50;99.90;;;;;;5103682;28;19964;-74
2023/01/16 11:28:50;;;;;;;1.45;0.60;;;4.40;99.90;;;;;;5051758;28;20140;-72
2023/01/16 11:31:22;;;;;;;1.48;0.70;;;4.50;99.90;;;;;;5051530;28;20048;-72
2023/01/16 11:33:59;;;;;;;1.83;1.05;;;4.70;99.90;;;;;;5051456;28;20040;-71
2023/01/16 11:36:27;;;;;;;1.02;0.60;;;4.30;99.90;;;;;;5052284;28;20040;-71
2023/01/16 11:38:53;;;;;;;3.67;1.00;;;4.20;99.90;;;;;;5121581;27;20101;-72
2023/01/16 11:41:23;;;;;;;1.95;0.60;;;4.20;99.90;;;;;;5051464;28;20466;-72
2023/01/16 11:47:22;;;;;;;0.93;0.60;;;4.20;99.90;;;;;;5072090;28;20044;-72
2023/01/16 11:49:52;;;;;;;2.10;0.80;;;4.20;99.90;;;;;;5051769;28;20093;-74
2023/01/16 11:52:27;;;;;;;1.35;0.60;;;4.30;99.90;;;;;;5051434;28;20041;-72
2023/01/16 11:55:03;;;;;;;2.65;0.70;;;4.30;99.90;;;;;;5051429;28;20047;-72
2023/01/16 11:57:44;;;;;;;4.53;1.98;;;4.30;99.90;;;;;;5051407;28;20092;-74
2023/01/16 12:00:16;;;;;;;2.25;0.90;;;4.30;99.90;;;;;;5120010;27;20105;-72
2023/01/16 12:03:21;;;;;;;1.42;0.70;;;4.80;99.90;;;;;;5051117;28;20068;-72
2023/01/16 12:06:14;;;;;;;1.92;0.80;;;4.30;99.90;;;;;;5052280;28;20055;-72
2023/01/16 12:08:59;;;;;;;1.27;0.75;;;4.20;99.90;;;;;;5051140;28;20048;-71
2023/01/16 12:11:51;;;;;;;2.25;0.80;;;4.20;99.90;;;;;;5051373;28;20466;-72
2023/01/16 12:14:43;;;;;;;4.45;0.95;;;4.30;99.90;;;;;;5051999;28;20128;-71
2023/01/16 12:17:21;;;;;;;1.73;0.93;;;4.90;99.90;;;;;;5051373;28;20422;-71
2023/01/16 12:19:47;;;;;;;1.92;1.20;;;4.20;99.90;;;;;;5051476;27;20056;-72
2023/01/16 12:22:28;;;;;;;1.70;0.90;;;4.20;99.90;;;;;;5103574;27;20315;-73
2023/01/16 12:25:25;;;;;;;3.80;1.10;;;4.20;99.90;;;;;;5051552;28;20087;-71
2023/01/16 12:28:01;;;;;;;2.58;1.10;;;4.20;99.90;;;;;;5051417;28;20526;-72
2023/01/16 12:30:35;;;;;;;5.60;1.88;;;4.30;99.90;;;;;;5051922;27;20041;-71
2023/01/16 12:33:03;;;;;;;3.08;1.05;;;4.30;99.90;;;;;;5051765;28;20089;-71
2023/01/16 12:36:11;;;;;;;5.25;1.33;;;4.30;99.90;;;;;;5051215;28;20049;-71
2023/01/16 12:38:48;;;;;;;1.65;0.80;;;4.30;99.90;;;;;;5058461;28;20052;-71
2023/01/16 12:44:08;;;;;;;1.33;0.70;;;4.40;99.90;;;;;;5050824;27;20080;-65
2023/01/16 12:46:58;;;;;;;1.17;0.77;;;4.40;99.90;;;;;;5051213;28;20047;-71
2023/01/16 12:49:48;;;;;;;3.25;1.10;;;4.30;99.90;;;;;;5056303;27;20045;-71
2023/01/16 12:52:42;;;;;;;4.07;1.90;;;4.50;99.90;;;;;;5051273;28;20156;-74
2023/01/16 12:55:29;;;;;;;2.20;1.00;;;4.40;99.90;;;;;;5120843;27;20037;-70
2023/01/16 12:58:18;;;;;;;1.55;1.17;;;4.30;99.90;;;;;;5052905;28;20048;-71
2023/01/16 13:01:07;;;;;;;3.55;1.85;;;4.40;99.90;;;;;;5050513;28;20049;-71
2023/01/16 13:03:40;;;;;;;2.30;1.00;;;4.90;99.90;;;;;;5050497;28;20040;-69
2023/01/16 13:06:12;;;;;;;2.47;1.08;;;4.40;99.90;;;;;;5050465;27;20049;-70
2023/01/16 13:08:44;;;;;;;3.15;1.33;;;4.40;99.90;;;;;;5050586;27;20049;-70
2023/01/16 13:14:11;;;;;;;2.08;1.10;;;4.80;99.90;;;;;;5050488;28;20102;-70
2023/01/16 13:16:53;;;;;;;1.83;1.33;;;4.90;99.90;;;;;;5051119;28;20084;-70
2023/01/16 13:19:26;;;;;;;2.03;1.10;;;4.40;99.90;;;;;;5051126;28;20049;-70
2023/01/16 13:22:15;;;;;;;2.95;1.40;;;4.70;99.90;;;;;;5119053;28;20045;-70
2023/01/16 13:24:54;;;;;;;1.30;1.02;;;4.40;99.90;;;;;;5050464;28;20045;-71
2023/01/16 13:27:31;;;;;;;2.53;1.25;;;4.60;99.90;;;;;;5050830;28;20049;-70
2023/01/16 13:30:03;;;;;;;2.78;1.02;;;4.40;99.90;;;;;;5051486;28;20052;-70
2023/01/16 13:32:54;;;;;;;4.32;1.30;;;4.60;99.90;;;;;;5052305;28;20040;-70
2023/01/16 13:35:28;;;;;;;3.38;0.98;;;4.50;99.90;;;;;;5051730;28;20053;-70
2023/01/16 13:38:36;;;;;;;1.77;1.40;;;4.50;99.90;;;;;;5050191;28;20128;-69
2023/01/16 13:41:16;;;;;;;3.60;1.27;;;4.50;99.90;;;;;;5070564;28;20136;-70
2023/01/16 13:46:46;;;;;;;2.33;2.03;;;4.80;99.90;;;;;;5050551;27;20053;-70
2023/01/16 13:49:22;;;;;;;2.28;1.27;;;4.90;99.90;;;;;;5118122;28;20048;-70
2023/01/16 13:51:50;;;;;;;2.63;1.45;;;4.50;99.90;;;;;;5050044;27;20087;-70
2023/01/16 13:54:25;;;;;;;1.73;1.50;;;4.50;99.90;;;;;;5049648;28;20369;-71
2023/01/16 13:57:20;;;;;;;1.60;1.15;;;4.60;99.90;;;;;;5119185;28;20052;-71
2023/01/16 14:00:22;;;;;;;3.55;1.60;;;4.80;99.90;;;;;;5050660;28;20157;-70
2023/01/16 14:03:03;;;;;;;2.45;1.20;;;4.60;99.90;;;;;;5054198;28;20470;-69
2023/01/16 14:05:37;;;;;;;2.42;1.30;;;4.60;99.90;;;;;;5049828;28;20044;-70
2023/01/16 14:11:28;;;;;;;2.58;1.40;;;4.60;99.90;;;;;;5053148;28;20049;-70
2023/01/16 14:16:30;;;;;;;2.47;1.40;;;4.60;99.90;;;;;;5053252;27;20097;-70
2023/01/16 14:17:08;;;;;;;4.00;2.58;;;4.70;99.90;;;;;;5053108;28;20470;-71
2023/01/16 14:19:41;;;;;;;1.50;1.27;;;4.60;99.90;;;;;;5052866;28;20041;-71